Time;durP1;ratioP1;P1;durP2;ratioP2;P2;SDS_P1;SDS_P2;PMS_P1;PMS_P2;Temp;Humidity;BMP_temperature;BMP_pressure;BME280_temperature;BME280_humidity;BME280_pressure;Samples;Min_cycle;Max_cycle;Signal;HPM_P1;HPM_P2
2022/04/30 00:00:30;;;;;;;3.83;2.45;;;;;;;-1.11;100.00;102485.38;5104612;28;20385;-46
2022/04/30 00:03:00;;;;;;;5.78;2.90;;;;;;;-1.13;100.00;102484.59;5105420;28;20055;-44
2022/04/30 00:05:30;;;;;;;2.58;1.88;;;;;;;-1.16;100.00;102485.59;5117326;28;20035;-46
2022/04/30 00:07:56;;;;;;;4.13;1.85;;;;;;;-1.19;100.00;102490.94;5101520;28;20031;-45
2022/04/30 00:10:21;;;;;;;2.78;1.35;;;;;;;-1.21;100.00;102489.31;5104160;28;20602;-45
2022/04/30 00:12:47;;;;;;;3.70;2.30;;;;;;;-1.25;100.00;102491.16;5103552;28;20463;-45
2022/04/30 00:15:12;;;;;;;2.17;1.63;;;;;;;-1.27;100.00;102484.34;5113564;28;20023;-47
2022/04/30 00:17:37;;;;;;;3.50;2.17;;;;;;;-1.29;100.00;102487.03;5099805;28;20061;-51
2022/04/30 00:20:05;;;;;;;2.72;2.05;;;;;;;-1.29;100.00;102483.56;5107126;28;20070;-47
2022/04/30 00:22:30;;;;;;;4.30;2.17;;;;;;;-1.30;100.00;102487.06;5093958;28;20031;-46
2022/04/30 00:24:56;;;;;;;2.85;1.75;;;;;;;-1.29;100.00;102494.84;5107926;28;20024;-49
2022/04/30 00:27:21;;;;;;;5.55;2.63;;;;;;;-1.34;100.00;102483.78;5106681;28;20101;-48
2022/04/30 00:29:47;;;;;;;2.45;1.75;;;;;;;-1.38;100.00;102490.00;5108307;28;20895;-46
2022/04/30 00:32:13;;;;;;;4.75;1.85;;;;;;;-1.45;100.00;102484.19;5092368;28;20038;-48
2022/04/30 00:34:38;;;;;;;2.42;1.75;;;;;;;-1.47;100.00;102485.16;5110088;28;20031;-45
2022/04/30 00:37:03;;;;;;;9.80;2.85;;;;;;;-1.50;100.00;102480.94;5099051;28;20027;-44
2022/04/30 00:39:33;;;;;;;4.53;2.53;;;;;;;-1.47;100.00;102485.16;5095318;28;20099;-50
2022/04/30 00:41:59;;;;;;;2.35;1.48;;;;;;;-1.52;100.00;102477.56;5102001;28;20035;-45
2022/04/30 00:44:24;;;;;;;3.80;2.15;;;;;;;-1.58;100.00;102473.44;5112497;28;20034;-44
2022/04/30 00:46:50;;;;;;;2.05;1.75;;;;;;;-1.63;100.00;102467.59;5106185;28;20478;-45
2022/04/30 00:49:16;;;;;;;3.22;1.85;;;;;;;-1.66;100.00;102470.31;5108110;28;20035;-48
2022/04/30 00:51:43;;;;;;;5.80;2.95;;;;;;;-1.68;100.00;102468.69;5097240;28;20489;-46
2022/04/30 00:54:11;;;;;;;5.03;2.60;;;;;;;-1.71;100.00;102474.88;5106333;28;20512;-44
2022/04/30 00:56:58;;;;;;;3.90;1.70;;;;;;;-1.70;100.00;102476.56;5100406;28;20115;-46
2022/04/30 00:59:24;;;;;;;5.07;1.92;;;;;;;-1.71;100.00;102471.44;5106769;28;20041;-46
2022/04/30 01:01:50;;;;;;;3.10;2.03;;;;;;;-1.72;100.00;102480.16;5113965;28;20035;-47
2022/04/30 01:04:18;;;;;;;5.75;2.22;;;;;;;-1.77;100.00;102481.16;5108191;28;20043;-44
2022/04/30 01:06:48;;;;;;;3.63;2.45;;;;;;;-1.80;100.00;102483.06;5083586;28;20089;-44
2022/04/30 01:09:14;;;;;;;6.50;1.90;;;;;;;-1.86;100.00;102471.16;5105128;28;20024;-46
2022/04/30 01:11:41;;;;;;;5.38;2.20;;;;;;;-1.86;100.00;102467.69;5090798;27;20035;-47
2022/04/30 01:14:07;;;;;;;3.85;1.52;;;;;;;-1.89;100.00;102463.47;5095913;28;20023;-47
2022/04/30 01:16:34;;;;;;;5.05;2.63;;;;;;;-1.92;100.00;102457.53;5108785;28;20376;-45
2022/04/30 01:19:01;;;;;;;2.85;1.38;;;;;;;-1.97;100.00;102455.97;5096140;28;20437;-47
2022/04/30 01:21:30;;;;;;;3.30;1.40;;;;;;;-1.98;100.00;102456.88;5107554;28;20333;-44
2022/04/30 01:23:57;;;;;;;3.08;1.85;;;;;;;-2.00;100.00;102453.50;5102427;28;20123;-46
2022/04/30 01:26:26;;;;;;;4.25;2.30;;;;;;;-2.02;100.00;102457.06;5100783;28;20067;-48
2022/04/30 01:28:53;;;;;;;5.72;1.77;;;;;;;-2.08;100.00;102454.72;5106346;28;20023;-44
2022/04/30 01:39:31;;;;;;;4.65;2.50;;;;;;;-2.12;100.00;102453.97;5096412;28;20156;-44
2022/04/30 01:42:03;;;;;;;3.15;2.10;;;;;;;-2.14;100.00;102450.63;5105432;28;20110;-46
2022/04/30 01:44:29;;;;;;;7.78;2.55;;;;;;;-2.16;100.00;102444.63;5103162;28;20028;-44
2022/04/30 01:46:55;;;;;;;3.88;2.10;;;;;;;-2.18;100.00;102443.00;5092881;28;20499;-45
2022/04/30 01:49:20;;;;;;;3.83;2.05;;;;;;;-2.20;100.00;102443.88;5096523;28;20108;-47
2022/04/30 01:51:50;;;;;;;2.72;1.50;;;;;;;-2.22;100.00;102448.31;5107162;28;20271;-46
2022/04/30 01:54:16;;;;;;;5.07;2.03;;;;;;;-2.24;100.00;102441.47;5108441;28;20042;-45
2022/04/30 01:56:41;;;;;;;3.38;1.95;;;;;;;-2.24;100.00;102438.88;5097362;28;20032;-44
2022/04/30 01:59:06;;;;;;;4.82;2.00;;;;;;;-2.24;100.00;102438.88;5099423;28;20027;-44
2022/04/30 02:01:32;;;;;;;3.10;1.95;;;;;;;-2.25;100.00;102437.16;5109515;28;20406;-44
2022/04/30 02:03:58;;;;;;;4.63;1.80;;;;;;;-2.29;100.00;102427.81;5095695;28;20032;-46
2022/04/30 02:06:23;;;;;;;2.83;2.05;;;;;;;-2.30;100.00;102432.16;5094149;28;20377;-47
2022/04/30 02:08:49;;;;;;;6.47;2.72;;;;;;;-2.32;100.00;102422.72;5101578;28;20024;-50
2022/04/30 02:11:14;;;;;;;5.28;2.15;;;;;;;-2.34;100.00;102434.94;5105386;28;20028;-51
2022/04/30 02:13:40;;;;;;;4.22;1.60;;;;;;;-2.38;100.00;102428.16;5106314;28;20469;-46
2022/04/30 02:16:07;;;;;;;3.03;1.85;;;;;;;-2.41;100.00;102435.16;5098456;28;20038;-44
2022/04/30 02:18:35;;;;;;;2.90;2.15;;;;;;;-2.43;100.00;102431.81;5096645;28;20469;-46
2022/04/30 02:21:00;;;;;;;5.53;2.35;;;;;;;-2.43;100.00;102430.94;5105347;28;20066;-49
2022/04/30 02:23:25;;;;;;;3.45;2.22;;;;;;;-2.44;100.00;102426.66;5107363;28;20031;-48
2022/04/30 02:25:51;;;;;;;3.60;2.08;;;;;;;-2.45;100.00;102422.38;5102314;28;20186;-47
2022/04/30 02:28:17;;;;;;;4.18;3.22;;;;;;;-2.45;100.00;102417.19;5100444;28;20449;-44
2022/04/30 02:30:43;;;;;;;2.30;1.48;;;;;;;-2.46;100.00;102416.31;5091610;28;20067;-49
2022/04/30 02:33:10;;;;;;;4.18;2.08;;;;;;;-2.48;100.00;102412.94;5105138;28;20114;-49
2022/04/30 02:35:38;;;;;;;7.80;2.47;;;;;;;-2.44;100.00;102405.88;5099255;28;20444;-46
2022/04/30 02:38:08;;;;;;;3.88;1.75;;;;;;;-2.47;100.00;102400.81;5102252;28;20085;-46
2022/04/30 02:40:34;;;;;;;4.22;2.03;;;;;;;-2.51;100.00;102407.00;5105892;28;20161;-46
2022/04/30 02:43:25;;;;;;;2.92;2.10;;;;;;;-2.53;100.00;102409.69;5105899;28;20119;-45
2022/04/30 02:45:51;;;;;;;3.72;2.55;;;;;;;-2.59;100.00;102409.91;5108657;28;20171;-46
2022/04/30 02:48:16;;;;;;;3.75;1.95;;;;;;;-2.63;100.00;102406.59;5108898;28;20114;-44
2022/04/30 02:50:42;;;;;;;2.80;1.35;;;;;;;-2.64;100.00;102419.63;5107394;28;20035;-46
2022/04/30 02:53:08;;;;;;;5.05;2.08;;;;;;;-2.67;100.00;102423.19;5107935;28;20028;-44
2022/04/30 02:55:35;;;;;;;4.80;2.92;;;;;;;-2.69;100.00;102421.53;5105822;28;20081;-46
2022/04/30 03:00:46;;;;;;;5.30;1.65;;;;;;;-2.75;100.00;102422.63;5108727;28;20066;-47
2022/04/30 03:03:14;;;;;;;4.22;1.80;;;;;;;-2.74;100.00;102419.13;5103105;28;20036;-44
2022/04/30 03:05:42;;;;;;;2.38;1.55;;;;;;;-2.74;100.00;102426.91;5111655;28;20028;-44
2022/04/30 03:08:12;;;;;;;3.10;2.25;;;;;;;-2.72;100.00;102426.84;5103974;28;20040;-46
2022/04/30 03:10:45;;;;;;;3.63;2.23;;;;;;;-2.76;100.00;102425.28;5106395;28;20024;-46
2022/04/30 03:13:13;;;;;;;3.92;2.13;;;;;;;-2.78;100.00;102432.28;5093368;28;20031;-45
2022/04/30 03:15:43;;;;;;;4.55;1.80;;;;;;;-2.79;100.00;102436.63;5100363;28;20032;-45
2022/04/30 03:23:38;;;;;;;2.22;1.80;;;;;;;-2.85;100.00;102435.09;5112788;28;20045;-49
2022/04/30 03:26:05;;;;;;;3.45;1.80;;;;;;;-2.83;100.00;102435.06;5098026;28;20032;-47
2022/04/30 03:28:35;;;;;;;2.15;1.60;;;;;;;-2.82;100.00;102428.09;5098501;28;20038;-46
2022/04/30 03:31:01;;;;;;;3.65;1.88;;;;;;;-2.82;100.00;102428.09;5097064;28;20035;-48
2022/04/30 03:33:26;;;;;;;1.95;1.33;;;;;;;-2.81;100.00;102419.41;5104245;27;20448;-45
2022/04/30 03:35:52;;;;;;;3.95;2.45;;;;;;;-2.81;100.00;102429.78;5101025;28;20559;-46
2022/04/30 03:38:17;;;;;;;4.43;2.17;;;;;;;-2.82;100.00;102428.09;5098682;28;20519;-50
2022/04/30 03:40:43;;;;;;;2.42;1.85;;;;;;;-2.83;100.00;102426.41;5095481;28;20312;-45
2022/04/30 03:43:08;;;;;;;3.30;2.05;;;;;;;-2.86;100.00;102423.03;5102287;28;20028;-48
2022/04/30 03:45:34;;;;;;;4.32;2.20;;;;;;;-2.90;100.00;102424.03;5113345;28;20019;-47
2022/04/30 03:48:00;;;;;;;3.28;1.73;;;;;;;-2.91;100.00;102426.69;5096715;28;20077;-50
2022/04/30 03:50:26;;;;;;;4.03;1.70;;;;;;;-2.88;100.00;102409.25;5105327;28;20040;-47
2022/04/30 03:52:51;;;;;;;4.70;1.67;;;;;;;-2.88;100.00;102413.59;5104018;28;20039;-45
2022/04/30 03:55:16;;;;;;;3.55;1.30;;;;;;;-2.88;100.00;102411.00;5110033;28;20035;-46
2022/04/30 03:57:42;;;;;;;3.47;1.73;;;;;;;-2.92;100.00;102409.41;5098134;28;20036;-46
2022/04/30 04:00:09;;;;;;;4.97;2.03;;;;;;;-2.96;100.00;102406.09;5108877;28;20036;-45
2022/04/30 04:02:39;;;;;;;3.20;2.17;;;;;;;-2.99;100.00;102407.97;5105086;28;20377;-47
2022/04/30 04:05:15;;;;;;;4.00;2.03;;;;;;;-3.02;100.00;102403.75;5110565;28;20054;-45
2022/04/30 04:07:41;;;;;;;2.38;1.73;;;;;;;-3.04;100.00;102405.53;5107412;28;20535;-46
2022/04/30 04:10:09;;;;;;;8.85;1.90;;;;;;;-3.06;100.00;102402.16;5108639;28;20118;-44
2022/04/30 04:12:34;;;;;;;2.22;1.33;;;;;;;-3.10;100.00;102396.22;5101232;28;20096;-45
2022/04/30 04:17:43;;;;;;;2.28;1.58;;;;;;;-3.07;100.00;102395.28;5109191;28;20038;-47
2022/04/30 04:20:11;;;;;;;3.35;1.80;;;;;;;-3.05;100.00;102401.22;5110451;28;20039;-45
2022/04/30 04:22:37;;;;;;;3.35;1.77;;;;;;;-3.07;100.00;102390.94;5097994;28;20123;-45
2022/04/30 04:27:47;;;;;;;3.95;1.80;;;;;;;-3.08;100.00;102403.94;5096786;28;20640;-44
2022/04/30 04:30:13;;;;;;;4.85;1.30;;;;;;;-3.12;100.00;102410.16;5092348;28;20122;-50
2022/04/30 04:32:38;;;;;;;4.30;2.10;;;;;;;-3.18;100.00;102406.03;5104428;28;20119;-48
2022/04/30 04:35:04;;;;;;;4.85;1.80;;;;;;;-3.23;100.00;102410.53;5096765;28;20062;-46
2022/04/30 04:37:31;;;;;;;1.85;1.42;;;;;;;-3.19;100.00;102412.13;5094573;28;20067;-47
2022/04/30 04:39:56;;;;;;;3.85;2.08;;;;;;;-3.11;100.00;102411.84;5103456;28;20051;-47
2022/04/30 04:42:22;;;;;;;3.88;1.80;;;;;;;-3.08;100.00;102414.31;5108284;28;20032;-49
2022/04/30 04:44:47;;;;;;;2.78;1.67;;;;;;;-3.08;100.00;102412.56;5111651;28;20038;-45
2022/04/30 04:47:13;;;;;;;3.83;1.48;;;;;;;-3.08;100.00;102414.31;5080173;28;20411;-45
2022/04/30 04:49:40;;;;;;;5.68;1.88;;;;;;;-3.05;100.00;102423.75;5108932;28;20027;-44
2022/04/30 04:52:08;;;;;;;1.92;1.40;;;;;;;-3.02;100.00;102416.72;5107716;28;20065;-47
2022/04/30 04:54:33;;;;;;;5.78;2.03;;;;;;;-3.05;100.00;102411.63;5113701;28;20333;-48
2022/04/30 04:56:58;;;;;;;4.13;1.98;;;;;;;-3.03;100.00;102414.16;5104707;28;20038;-47
2022/04/30 04:59:24;;;;;;;4.38;1.83;;;;;;;-3.04;100.00;102412.47;5101054;28;20466;-45
2022/04/30 05:01:51;;;;;;;2.88;1.50;;;;;;;-3.05;100.00;102416.81;5091725;28;20056;-46
2022/04/30 05:04:17;;;;;;;2.83;1.77;;;;;;;-3.09;100.00;102416.09;5101388;28;20035;-47
2022/04/30 05:06:42;;;;;;;4.72;2.05;;;;;;;-3.05;100.00;102419.41;5088705;28;20126;-45
2022/04/30 05:09:07;;;;;;;4.22;1.48;;;;;;;-2.96;100.00;102426.88;5102477;28;20028;-47
2022/04/30 05:11:33;;;;;;;4.32;2.53;;;;;;;-2.92;100.00;102423.28;5102722;28;20039;-45
2022/04/30 05:13:58;;;;;;;1.98;1.08;;;;;;;-2.90;100.00;102429.22;5113001;28;20074;-46
2022/04/30 05:16:24;;;;;;;6.32;3.17;;;;;;;-2.88;100.00;102427.44;5106009;28;20027;-45
2022/04/30 05:18:49;;;;;;;4.25;2.03;;;;;;;-2.90;100.00;102434.41;5103475;28;20024;-46
2022/04/30 05:21:14;;;;;;;3.35;2.22;;;;;;;-2.90;100.00;102426.63;5082528;28;20110;-45
2022/04/30 05:23:40;;;;;;;6.45;1.58;;;;;;;-2.88;100.00;102435.22;5096157;28;20055;-46
2022/04/30 05:26:05;;;;;;;3.80;1.08;;;;;;;-2.79;100.00;102434.03;5098000;28;20056;-45
2022/04/30 05:28:31;;;;;;;8.52;1.85;;;;;;;-2.76;100.00;102433.06;5082764;28;20069;-45
2022/04/30 05:30:56;;;;;;;2.25;1.65;;;;;;;-2.74;100.00;102431.25;5106396;28;20020;-49
2022/04/30 05:33:22;;;;;;;3.95;2.17;;;;;;;-2.71;100.00;102436.31;5101741;28;20139;-46
2022/04/30 05:35:47;;;;;;;1.98;1.67;;;;;;;-2.68;100.00;102433.66;5106511;28;20373;-45
2022/04/30 05:38:13;;;;;;;2.75;1.70;;;;;;;-2.65;100.00;102429.16;5083674;28;20027;-47
2022/04/30 05:40:38;;;;;;;1.90;1.65;;;;;;;-2.61;100.00;102429.03;5112134;28;20106;-47
2022/04/30 05:43:05;;;;;;;3.45;2.22;;;;;;;-2.64;100.00;102430.84;5108999;28;20047;-45
2022/04/30 05:45:31;;;;;;;2.53;1.58;;;;;;;-2.63;100.00;102424.78;5102471;28;20042;-50
2022/04/30 05:47:56;;;;;;;5.40;1.80;;;;;;;-2.56;100.00;102438.34;5098038;28;20435;-46
2022/04/30 05:50:21;;;;;;;6.28;3.00;;;;;;;-2.44;100.00;102426.66;5102488;28;20035;-45
2022/04/30 05:52:47;;;;;;;3.92;2.05;;;;;;;-2.38;100.00;102422.97;5104236;28;20059;-47
2022/04/30 05:55:12;;;;;;;2.97;2.00;;;;;;;-2.35;100.00;102428.03;5100164;28;20579;-47
2022/04/30 05:57:39;;;;;;;6.53;2.22;;;;;;;-2.36;100.00;102422.00;5103422;28;20513;-45
2022/04/30 06:00:05;;;;;;;2.67;1.63;;;;;;;-2.28;100.00;102419.94;5109601;28;20084;-48
2022/04/30 06:02:30;;;;;;;2.97;1.98;;;;;;;-2.12;100.00;102417.59;5118261;28;20027;-45
2022/04/30 06:04:55;;;;;;;4.10;1.95;;;;;;;-1.98;100.00;102411.84;5093014;28;20126;-47
2022/04/30 06:07:21;;;;;;;4.90;2.55;;;;;;;-1.83;100.00;102418.19;5112047;28;20484;-47
2022/04/30 06:09:46;;;;;;;3.17;2.88;;;;;;;-1.68;100.00;102414.91;5106148;28;20098;-44
2022/04/30 06:12:11;;;;;;;4.63;2.25;;;;;;;-1.57;100.00;102409.28;5108866;28;20066;-47
2022/04/30 06:14:37;;;;;;;6.05;2.20;;;;;;;-1.51;100.00;102410.78;5101315;28;20400;-46
2022/04/30 06:17:03;;;;;;;3.03;1.83;;;;;;;-1.54;100.00;102417.78;5112360;28;20027;-46
2022/04/30 06:19:28;;;;;;;3.25;1.70;;;;;;;-1.52;100.00;102416.88;5100837;28;20035;-48
2022/04/30 06:21:54;;;;;;;6.00;2.30;;;;;;;-1.43;100.00;102419.09;5108508;28;20043;-48
2022/04/30 06:24:19;;;;;;;5.55;2.88;;;;;;;-1.35;100.00;102415.22;5101517;28;20490;-48
2022/04/30 06:26:45;;;;;;;3.80;2.75;;;;;;;-1.17;100.00;102416.19;5109395;28;20027;-45
2022/04/30 06:29:12;;;;;;;2.30;1.77;;;;;;;-1.05;100.00;102409.59;5105789;28;20087;-46
2022/04/30 06:31:38;;;;;;;4.35;2.40;;;;;;;-0.93;100.00;102410.78;5107301;28;20038;-48
2022/04/30 06:34:04;;;;;;;2.55;1.77;;;;;;;-0.72;100.00;102419.44;5104843;28;20027;-49
2022/04/30 06:36:29;;;;;;;3.67;2.88;;;;;;;-0.54;100.00;102415.09;5100216;28;20117;-47
2022/04/30 06:38:55;;;;;;;3.33;2.35;;;;;;;-0.43;100.00;102412.84;5098073;28;20522;-46
2022/04/30 06:41:23;;;;;;;1.75;1.27;;;;;;;-0.28;100.00;102413.88;5110790;28;20395;-45
2022/04/30 06:43:50;;;;;;;3.15;2.17;;;;;;;-0.08;100.00;102418.13;5097513;28;20374;-50
2022/04/30 06:46:16;;;;;;;4.65;3.45;;;;;;;0.05;100.00;102414.00;5096434;28;20120;-46
2022/04/30 06:48:41;;;;;;;2.70;2.05;;;;;;;0.19;100.00;102411.56;5106943;28;20043;-46
2022/04/30 06:51:07;;;;;;;4.22;2.13;;;;;;;0.36;100.00;102407.25;5105702;28;20031;-52
2022/04/30 06:59:10;;;;;;;2.88;1.90;;;;;;;1.08;100.00;102416.56;5106834;28;20030;-52
2022/04/30 07:04:22;;;;;;;4.78;2.65;;;;;;;1.59;100.00;102408.59;5103054;28;20376;-47
2022/04/30 07:06:47;;;;;;;4.53;3.42;;;;;;;1.84;100.00;102405.44;5100593;28;20088;-48
2022/04/30 07:09:13;;;;;;;8.38;3.13;;;;;;;2.14;100.00;102408.06;5086053;28;20076;-50
2022/04/30 07:11:39;;;;;;;4.55;2.75;;;;;;;2.40;100.00;102409.16;5104093;28;20108;-49
2022/04/30 07:14:04;;;;;;;4.78;2.63;;;;;;;2.64;100.00;102406.88;5105083;28;20061;-48
2022/04/30 07:16:30;;;;;;;4.28;2.72;;;;;;;2.86;100.00;102400.31;5099894;28;20529;-48
2022/04/30 07:18:55;;;;;;;2.90;2.33;;;;;;;3.09;100.00;102398.91;5105277;28;20024;-45
2022/04/30 07:21:20;;;;;;;5.55;2.67;;;;;;;3.37;100.00;102411.13;5104608;28;20031;-49
2022/04/30 07:23:46;;;;;;;4.00;2.83;;;;;;;3.65;100.00;102402.34;5087221;28;20024;-46
2022/04/30 07:26:11;;;;;;;6.10;2.67;;;;;;;3.89;100.00;102402.53;5113259;28;20179;-46
2022/04/30 07:28:37;;;;;;;4.97;2.58;;;;;;;4.14;100.00;102396.50;5096952;28;20401;-47
2022/04/30 07:31:04;;;;;;;7.25;3.13;;;;;;;4.44;100.00;102398.88;5104052;28;20463;-48
2022/04/30 07:33:30;;;;;;;3.08;2.42;;;;;;;4.72;100.00;102384.66;5095150;28;20087;-48
2022/04/30 07:35:55;;;;;;;3.08;2.20;;;;;;;5.05;100.00;102392.94;5094844;28;20060;-49
2022/04/30 07:38:21;;;;;;;3.58;2.60;;;;;;;5.29;100.00;102385.91;5092990;28;20445;-47
2022/04/30 07:40:47;;;;;;;2.40;1.98;;;;;;;5.52;100.00;102380.78;5099743;28;20046;-48
2022/04/30 07:43:12;;;;;;;4.63;1.27;;;;;;;5.80;100.00;102380.44;5102039;28;20032;-46
2022/04/30 07:45:38;;;;;;;5.47;2.40;;;;;;;6.09;100.00;102386.22;5099286;28;20094;-45
2022/04/30 07:48:04;;;;;;;5.05;1.58;;;;;;;6.30;100.00;102380.28;5099999;28;20439;-48
2022/04/30 07:50:35;;;;;;;2.45;1.67;;;;;;;6.39;100.00;102378.75;5090593;28;20035;-46
2022/04/30 07:53:00;;;;;;;;;;;;;;;6.53;100.00;102378.50;5096503;28;20032;-48
2022/04/30 07:55:28;;;;;;;2.15;0.82;;;;;;;6.70;100.00;102367.50;5090452;28;20469;-47
2022/04/30 07:57:53;;;;;;;1.67;1.30;;;;;;;6.88;100.00;102375.78;5092963;28;20039;-47
2022/04/30 08:00:19;;;;;;;1.48;1.38;;;;;;;7.09;100.00;102373.25;5092641;28;20036;-47
2022/04/30 08:02:44;;;;;;;2.00;1.52;;;;;;;7.25;100.00;102374.66;5088366;28;20028;-46
2022/04/30 08:05:10;;;;;;;2.47;1.88;;;;;;;7.32;100.00;102365.28;5090369;28;20082;-46
2022/04/30 08:07:35;;;;;;;4.00;2.30;;;;;;;7.44;100.00;102359.03;5096901;28;20035;-48
2022/04/30 08:10:00;;;;;;;2.10;1.90;;;;;;;7.52;100.00;102358.41;5088971;28;20024;-48
2022/04/30 08:12:26;;;;;;;1.48;1.38;;;;;;;7.67;100.00;102358.94;5086202;28;20035;-48
2022/04/30 08:14:51;;;;;;;1.90;1.63;;;;;;;7.81;100.00;102361.28;5087307;28;20032;-47
2022/04/30 08:17:16;;;;;;;2.63;2.15;;;;;;;7.93;100.00;102357.63;5082971;28;20042;-48
2022/04/30 08:19:42;;;;;;;2.05;1.80;;;;;;;8.01;100.00;102347.25;5089039;28;20036;-46
2022/04/30 08:22:07;;;;;;;2.13;1.92;;;;;;;8.05;100.00;102350.47;5087699;28;20109;-47
2022/04/30 08:24:32;;;;;;;4.13;1.40;;;;;;;8.23;100.00;102348.09;5091618;28;20028;-48
2022/04/30 08:26:59;;;;;;;2.83;1.35;;;;;;;8.42;100.00;102360.63;5086835;28;20032;-49
2022/04/30 08:29:26;;;;;;;1.42;1.30;;;;;;;8.53;100.00;102355.25;5086413;28;20828;-46
2022/04/30 08:31:51;;;;;;;1.88;1.45;;;;;;;8.69;100.00;102352.13;5090990;28;20536;-45
2022/04/30 08:34:16;;;;;;;5.32;2.92;;;;;;;8.74;100.00;102349.91;5094221;28;20028;-45
2022/04/30 08:36:42;;;;;;;1.75;1.00;;;;;;;8.83;100.00;102348.25;5083622;28;20071;-50
2022/04/30 08:39:07;;;;;;;1.95;1.38;;;;;;;9.02;100.00;102340.41;5089833;28;20043;-49
2022/04/30 08:41:33;;;;;;;0.98;0.98;;;;;;;9.12;100.00;102335.13;5095552;28;20126;-48
2022/04/30 08:43:58;;;;;;;2.05;1.35;;;;;;;9.34;100.00;102328.75;5086699;28;20024;-46
2022/04/30 08:46:24;;;;;;;10.45;1.35;;;;;;;9.43;100.00;102332.41;5087332;28;20031;-47
2022/04/30 08:48:49;;;;;;;4.35;1.35;;;;;;;9.45;100.00;102327.78;5090617;28;20039;-48
2022/04/30 08:51:15;;;;;;;2.72;1.70;;;;;;;9.54;100.00;102325.13;5100036;28;20062;-47
2022/04/30 08:53:41;;;;;;;9.77;1.65;;;;;;;9.64;100.00;102330.44;5091955;28;20032;-47
2022/04/30 08:56:10;;;;;;;1.77;1.00;;;;;;;9.71;100.00;102323.63;5095874;28;20028;-48
2022/04/30 08:58:35;;;;;;;1.58;1.40;;;;;;;9.97;100.00;102329.16;5098074;28;20502;-45
2022/04/30 09:01:03;;;;;;;2.03;1.30;;;;;;;10.18;100.00;102336.94;5106546;28;20032;-49
2022/04/30 09:03:34;;;;;;;4.13;1.38;;;;;;;10.19;100.00;102327.16;5105948;28;20458;-48
2022/04/30 09:06:00;;;;;;;2.13;1.20;;;;;;;10.26;100.00;102323.78;5104201;28;20024;-46
2022/04/30 09:08:26;;;;;;;1.70;0.90;;;;;;;10.39;100.00;102318.19;5073674;28;20610;-51
2022/04/30 09:10:51;;;;;;;3.45;1.35;;;;;;;10.25;100.00;102319.47;5095800;28;20547;-50
2022/04/30 09:13:18;;;;;;;2.05;1.15;;;;;;;10.22;100.00;102318.91;5082228;28;20024;-46
2022/04/30 09:15:46;;;;;;;2.65;1.58;;;;;;;10.38;100.00;102316.53;5098471;28;20388;-46
2022/04/30 09:18:14;;;;;;;1.92;1.80;;;;;;;10.56;100.00;102311.31;5099447;28;20461;-47
2022/04/30 09:20:47;;;;;;;1.85;1.58;;;;;;;10.47;100.00;102315.66;5093560;28;20458;-48
2022/04/30 09:23:27;;;;;;;2.45;1.65;;;;;;;10.58;100.00;102306.66;5098791;28;20351;-47
2022/04/30 09:25:55;;;;;;;5.93;1.60;;;;;;;10.77;100.00;102310.25;5093548;28;20040;-51
2022/04/30 09:28:45;;;;;;;1.33;1.17;;;;;;;10.91;100.00;102301.75;5098747;28;20418;-47
2022/04/30 09:31:18;;;;;;;6.10;1.17;;;;;;;10.66;100.00;102301.50;5095885;28;20024;-45
2022/04/30 09:33:57;;;;;;;3.03;1.25;;;;;;;10.86;100.00;102299.53;5098491;28;20386;-46
2022/04/30 09:39:18;;;;;;;3.22;1.35;;;;;;;11.14;100.00;102297.69;5091184;28;20088;-49
2022/04/30 09:41:44;;;;;;;1.10;1.00;;;;;;;11.33;100.00;102285.25;5076092;28;20048;-46
2022/04/30 09:44:12;;;;;;;1.70;1.60;;;;;;;11.66;100.00;102285.56;5087054;28;20224;-52
2022/04/30 09:46:39;;;;;;;0.30;0.30;;;;;;;11.79;100.00;102278.84;5085601;28;20434;-47
2022/04/30 09:54:40;;;;;;;2.95;1.25;;;;;;;12.23;100.00;102268.16;5089671;28;20054;-48
2022/04/30 09:57:07;;;;;;;3.03;1.40;;;;;;;12.09;100.00;102263.47;5103459;28;20020;-47
2022/04/30 09:59:40;;;;;;;1.75;1.10;;;;;;;11.92;100.00;102259.84;5092387;28;20146;-48
2022/04/30 10:02:10;;;;;;;4.38;1.38;;;;;;;12.15;100.00;102260.16;5090080;28;20488;-46
2022/04/30 10:04:37;;;;;;;3.92;1.08;;;;;;;12.21;100.00;102256.88;5095872;28;20039;-52
2022/04/30 10:07:04;;;;;;;3.58;0.80;;;;;;;12.50;100.00;102255.69;5087735;28;20074;-48
2022/04/30 10:09:39;;;;;;;3.30;0.93;;;;;;;12.77;100.00;102248.44;5096351;28;20514;-49
2022/04/30 10:12:14;;;;;;;0.70;0.43;;;;;;;13.00;100.00;102246.00;5092719;28;20020;-48
2022/04/30 10:14:47;;;;;;;1.80;0.82;;;;;;;12.98;100.00;102243.47;5096037;28;20071;-49
2022/04/30 10:17:17;;;;;;;3.78;0.95;;;;;;;12.85;100.00;102251.13;5093767;28;20043;-48
2022/04/30 10:19:45;;;;;;;2.70;1.15;;;;;;;12.91;100.00;102244.31;5097412;28;20066;-46
2022/04/30 10:22:15;;;;;;;2.67;0.60;;;;;;;13.15;100.00;102243.53;5096684;28;20031;-47
2022/04/30 10:24:43;;;;;;;4.95;1.17;;;;;;;13.19;100.00;102240.38;5104655;28;20110;-52
2022/04/30 10:27:09;;;;;;;1.98;1.02;;;;;;;13.46;100.00;102233.91;5067611;28;20024;-49
2022/04/30 10:29:34;;;;;;;3.95;0.88;;;;;;;13.69;100.00;102228.72;5089294;28;20039;-49
2022/04/30 10:31:59;;;;;;;2.88;1.23;;;;;;;13.65;100.00;102235.38;5099764;28;20019;-48
2022/04/30 10:34:29;;;;;;;1.95;1.15;;;;;;;13.39;100.00;102227.56;5092709;28;20038;-48
2022/04/30 10:36:55;;;;;;;2.83;1.25;;;;;;;13.28;100.00;102226.06;5089323;28;20262;-48
2022/04/30 10:39:21;;;;;;;2.05;1.08;;;;;;;13.57;100.00;102218.56;5091581;28;20028;-48
2022/04/30 10:41:52;;;;;;;1.88;1.00;;;;;;;13.88;100.00;102210.69;5099534;28;20407;-51
2022/04/30 10:44:27;;;;;;;12.05;2.13;;;;;;;14.05;100.00;102214.97;5100564;28;20047;-46
2022/04/30 10:46:53;;;;;;;1.33;0.98;;;;;;;14.02;100.00;102214.47;5104846;28;20539;-51
2022/04/30 10:49:18;;;;;;;2.10;1.45;;;;;;;14.27;100.00;102207.22;5101971;28;20031;-49
2022/04/30 10:51:45;;;;;;;6.60;1.90;;;;;;;14.34;100.00;102203.69;5083725;28;20032;-46
2022/04/30 10:54:18;;;;;;;1.67;1.08;;;;;;;14.59;100.00;102199.09;5107384;28;20560;-47
2022/04/30 10:56:46;;;;;;;1.50;0.80;;;;;;;14.60;100.00;102198.06;5106398;28;20392;-48
2022/04/30 10:59:21;;;;;;;1.05;0.63;;;;;;;14.70;100.00;102197.03;5093105;28;20035;-49
2022/04/30 11:01:50;;;;;;;5.18;1.02;;;;;;;14.90;100.00;102189.38;5085390;28;20047;-49
2022/04/30 11:04:17;;;;;;;1.98;0.82;;;;;;;14.94;100.00;102186.16;5099943;28;20054;-48
2022/04/30 11:06:43;;;;;;;2.70;1.35;;;;;;;15.31;100.00;102175.69;5101032;28;20046;-51
2022/04/30 11:09:09;;;;;;;1.48;0.90;;;;;;;15.54;100.00;102173.81;5105897;28;20205;-49
2022/04/30 11:11:36;;;;;;;0.73;0.73;;;;;;;15.46;100.00;102168.50;5088904;28;20424;-49
2022/04/30 11:14:04;;;;;;;1.17;0.93;;;;;;;15.45;100.00;102173.03;5088999;28;20078;-46
2022/04/30 11:16:34;;;;;;;0.75;0.75;;;;;;;15.42;100.00;102168.06;5085143;28;20115;-50
2022/04/30 11:19:05;;;;;;;2.05;0.82;;;;;;;15.55;100.00;102163.94;5092478;28;20296;-47
2022/04/30 11:21:32;;;;;;;9.25;1.58;;;;;;;15.45;100.00;102162.34;5096567;28;20035;-46
2022/04/30 11:23:58;;;;;;;2.47;1.63;;;;;;;15.36;100.00;102158.13;5090107;28;20271;-47
2022/04/30 11:26:23;;;;;;;3.88;1.42;;;;;;;15.65;100.00;102159.97;5098065;28;20451;-47
2022/04/30 11:28:49;;;;;;;0.25;0.25;;;;;;;15.88;100.00;102151.91;5096010;28;20053;-48
2022/04/30 11:31:19;;;;;;;3.03;1.13;;;;;;;16.08;100.00;102149.47;5092346;28;20020;-51
2022/04/30 11:33:45;;;;;;;3.33;0.90;;;;;;;16.01;100.00;102145.88;5095098;28;20098;-49
2022/04/30 11:36:10;;;;;;;2.88;0.85;;;;;;;16.18;100.00;102141.13;5076463;28;20066;-47
2022/04/30 11:38:36;;;;;;;1.98;1.35;;;;;;;16.44;100.00;102134.44;5087270;28;20027;-46
2022/04/30 11:41:05;;;;;;;3.28;1.10;;;;;;;16.55;100.00;102139.31;5094309;28;20081;-53
2022/04/30 11:43:31;;;;;;;3.90;1.38;;;;;;;16.63;100.00;102125.78;5095263;28;20752;-47
2022/04/30 11:46:03;;;;;;;2.80;1.20;;;;;;;17.07;100.00;102134.66;5092427;28;20114;-49
2022/04/30 11:48:37;;;;;;;1.35;0.77;;;;;;;17.22;99.58;102119.31;5096038;28;20503;-49
2022/04/30 11:51:02;;;;;;;1.73;1.63;;;;;;;16.92;97.00;102110.63;5086573;28;20023;-47
2022/04/30 11:53:28;;;;;;;1.10;1.00;;;;;;;16.77;100.00;102116.88;5094238;28;20027;-49
2022/04/30 11:55:53;;;;;;;5.47;0.98;;;;;;;16.88;100.00;102112.03;5097554;28;20558;-52